Time;durP1;ratioP1;P1;durP2;ratioP2;P2;SDS_P1;SDS_P2;PMS_P1;PMS_P2;Temp;Humidity;BMP_temperature;BMP_pressure;BME280_temperature;BME280_humidity;BME280_pressure;Samples;Min_cycle;Max_cycle;Signal;HPM_P1;HPM_P2
2023/10/07 00:02:19;;;;;;;21.80;6.63;;;;;;;18.34;59.91;101591.38;5056314;28;20481;-78
2023/10/07 00:04:45;;;;;;;26.27;8.32;;;;;;;18.18;59.66;101553.91;5055551;28;20040;-80
2023/10/07 00:07:12;;;;;;;21.85;8.35;;;;;;;18.35;59.24;101593.94;5056187;28;20024;-79
2023/10/07 00:09:46;;;;;;;19.50;7.60;;;;;;;18.32;59.50;101585.19;5055787;28;20017;-79
2023/10/07 00:12:16;;;;;;;21.98;7.68;;;;;;;18.34;59.30;101585.94;5056278;28;20024;-77
2023/10/07 00:14:43;;;;;;;24.95;9.40;;;;;;;18.36;58.97;101579.31;5056691;28;20025;-77
2023/10/07 00:17:16;;;;;;;31.10;7.70;;;;;;;18.36;58.75;101568.41;5056051;28;20033;-79
2023/10/07 00:19:46;;;;;;;20.58;7.07;;;;;;;18.38;58.88;101570.97;5055574;28;20480;-78
2023/10/07 00:22:19;;;;;;;23.52;7.85;;;;;;;18.31;58.35;101565.31;5055885;28;20564;-78
2023/10/07 00:24:48;;;;;;;25.65;8.13;;;;;;;18.32;57.95;101567.00;5055995;28;20174;-78
2023/10/07 00:27:26;;;;;;;26.10;7.85;;;;;;;18.35;57.94;101572.16;5055760;28;20118;-76
2023/10/07 00:29:55;;;;;;;20.13;7.20;;;;;;;18.39;57.81;101573.56;5055784;28;20028;-78
2023/10/07 00:32:26;;;;;;;20.90;8.18;;;;;;;18.31;57.62;101554.41;5055635;28;20043;-77
2023/10/07 00:34:55;;;;;;;24.55;7.85;;;;;;;18.35;57.86;101569.41;5055169;28;20021;-78
2023/10/07 00:37:23;;;;;;;19.75;7.88;;;;;;;18.30;57.76;101560.84;5052873;28;20029;-78
2023/10/07 00:39:49;;;;;;;34.72;7.95;;;;;;;18.32;57.98;101556.09;5052378;28;20029;-77
2023/10/07 00:42:15;;;;;;;16.92;7.30;;;;;;;18.16;57.77;101531.41;5052094;28;20033;-79
2023/10/07 00:44:43;;;;;;;33.03;7.47;;;;;;;18.40;57.73;101558.09;5052566;28;20049;-78
2023/10/07 00:47:12;;;;;;;22.15;7.22;;;;;;;18.40;57.62;101555.34;5051915;28;20052;-78
2023/10/07 00:50:01;;;;;;;17.52;6.63;;;;;;;18.37;57.25;101556.53;5052170;28;20093;-78
2023/10/07 00:52:29;;;;;;;29.52;7.28;;;;;;;18.32;57.39;101545.22;5051286;28;20075;-77
2023/10/07 00:55:08;;;;;;;22.48;8.13;;;;;;;18.17;57.36;101519.50;5051763;28;20040;-78
2023/10/07 00:57:35;;;;;;;28.38;7.03;;;;;;;18.39;57.30;101546.31;5052405;28;20362;-79
2023/10/07 01:03:16;;;;;;;15.27;6.43;;;;;;;18.32;57.23;101537.03;4939604;29;20427;-78
2023/10/07 01:08:29;;;;;;;20.88;6.45;;;;;;;18.29;57.76;101548.25;4952127;29;20043;-78
2023/10/07 01:11:06;;;;;;;30.58;8.00;;;;;;;18.17;58.08;101527.66;4951674;29;20635;-77
2023/10/07 01:13:36;;;;;;;22.15;6.85;;;;;;;18.27;58.05;101543.97;4951787;29;20167;-78
2023/10/07 01:16:08;;;;;;;17.00;7.00;;;;;;;18.03;58.16;101511.00;4952002;29;20043;-77
2023/10/07 01:18:40;;;;;;;22.60;7.67;;;;;;;18.18;58.16;101537.56;4951940;29;20039;-77
2023/10/07 01:21:14;;;;;;;21.48;6.93;;;;;;;18.06;58.56;101533.31;4951643;29;20035;-80
2023/10/07 01:23:44;;;;;;;23.00;6.40;;;;;;;17.80;58.90;101495.03;4951641;29;20050;-79
2023/10/07 01:26:20;;;;;;;24.52;9.45;;;;;;;18.04;58.93;101546.22;4951374;29;20420;-78
2023/10/07 01:28:45;;;;;;;35.03;10.63;;;;;;;18.04;59.54;101548.94;4951329;29;20042;-78
2023/10/07 01:31:13;;;;;;;32.00;10.10;;;;;;;18.00;59.31;101538.53;4951353;29;20191;-78
2023/10/07 01:33:39;;;;;;;21.40;7.28;;;;;;;17.93;59.75;101538.25;4951383;29;20520;-78
2023/10/07 01:36:27;;;;;;;24.13;6.75;;;;;;;17.85;60.20;101541.75;4951410;29;20043;-79
2023/10/07 01:38:53;;;;;;;21.02;7.43;;;;;;;17.79;60.21;101546.91;4963312;28;20615;-79
2023/10/07 01:41:27;;;;;;;21.38;6.97;;;;;;;17.82;60.35;101539.31;5051229;28;20112;-79
2023/10/07 01:43:59;;;;;;;18.08;5.85;;;;;;;17.52;60.73;101501.41;5051977;28;20136;-79
2023/10/07 01:46:31;;;;;;;28.58;8.30;;;;;;;17.76;60.97;101548.09;5051791;28;20045;-79
2023/10/07 01:48:57;;;;;;;19.20;6.72;;;;;;;17.77;61.12;101554.34;5051250;28;20413;-79
2023/10/07 01:51:27;;;;;;;23.45;7.90;;;;;;;17.74;61.32;101550.06;5052148;28;20420;-79
2023/10/07 01:53:56;;;;;;;22.70;7.93;;;;;;;17.62;61.82;101534.06;5051878;28;20413;-80
2023/10/07 01:56:23;;;;;;;13.02;7.45;;;;;;;17.69;61.85;101546.09;5051888;28;20072;-79
2023/10/07 01:58:48;;;;;;;16.77;8.13;;;;;;;17.65;62.22;101555.53;5051737;28;20025;-79
2023/10/07 02:01:16;;;;;;;24.15;8.82;;;;;;;17.58;62.42;101554.44;5051187;28;20044;-78
2023/10/07 02:03:45;;;;;;;25.73;8.50;;;;;;;17.52;62.88;101555.81;5032343;28;20147;-79
2023/10/07 02:06:11;;;;;;;19.25;9.82;;;;;;;17.49;62.93;101549.84;5033310;28;20086;-79
2023/10/07 02:08:37;;;;;;;21.77;8.70;;;;;;;17.46;63.48;101550.16;5067319;28;20073;-77
2023/10/07 02:11:05;;;;;;;17.92;8.88;;;;;;;17.37;63.53;101539.13;5077230;28;20136;-77
2023/10/07 02:13:31;;;;;;;31.35;9.13;;;;;;;17.37;63.77;101552.72;5077269;28;20085;-75
2023/10/07 02:15:57;;;;;;;29.52;9.85;;;;;;;16.95;63.86;101461.66;5077074;28;20021;-77
2023/10/07 02:18:26;;;;;;;15.93;8.50;;;;;;;17.25;63.68;101521.25;5065117;28;20152;-78
2023/10/07 02:21:05;;;;;;;20.83;9.30;;;;;;;17.44;63.81;101547.56;5053507;28;20477;-78
2023/10/07 02:23:45;;;;;;;19.95;7.68;;;;;;;17.43;63.66;101546.69;5053380;28;20033;-78
2023/10/07 02:26:21;;;;;;;23.35;8.55;;;;;;;17.42;63.74;101545.00;5053328;28;20501;-78
2023/10/07 02:28:52;;;;;;;25.98;9.18;;;;;;;17.42;63.71;101542.28;5053346;28;20508;-79
2023/10/07 02:31:22;;;;;;;28.95;9.65;;;;;;;17.45;63.71;101532.97;5051326;28;20040;-77
2023/10/07 02:33:52;;;;;;;25.67;9.50;;;;;;;17.46;63.63;101540.09;5052444;28;20032;-78
2023/10/07 02:36:29;;;;;;;26.25;8.82;;;;;;;17.43;63.79;101538.53;5050999;28;20504;-77
2023/10/07 02:38:56;;;;;;;44.55;11.93;;;;;;;17.34;63.98;101536.69;4999432;28;20231;-78
2023/10/07 02:41:25;;;;;;;28.85;9.32;;;;;;;17.26;64.40;101542.00;5050535;28;20037;-78
2023/10/07 02:43:51;;;;;;;24.25;9.75;;;;;;;17.22;64.25;101532.41;5050903;28;20496;-79
2023/10/07 02:46:33;;;;;;;34.42;10.00;;;;;;;17.30;64.19;101538.00;5050807;28;20029;-78
2023/10/07 02:49:05;;;;;;;20.08;9.35;;;;;;;17.27;64.23;101541.03;5050755;28;20163;-77
2023/10/07 02:51:39;;;;;;;19.58;8.60;;;;;;;17.21;64.73;101533.44;5050297;28;20116;-80
2023/10/07 02:57:08;;;;;;;28.30;10.07;;;;;;;17.12;64.96;101528.88;4950033;29;20114;-79
2023/10/07 02:59:36;;;;;;;31.23;10.48;;;;;;;16.99;65.52;101530.16;4950147;28;20043;-78
2023/10/07 03:05:05;;;;;;;25.70;9.80;;;;;;;16.95;65.78;101535.03;4931165;29;20500;-79
2023/10/07 03:07:34;;;;;;;23.20;10.88;;;;;;;16.96;65.69;101542.19;4915044;29;20122;-77
2023/10/07 03:10:43;;;;;;;20.60;10.80;;;;;;;16.96;65.98;101535.91;4931325;29;20176;-78
2023/10/07 03:12:56;;;;;;;29.13;11.27;;;;;;;16.94;65.58;101543.34;4928996;29;20051;-79
2023/10/07 03:18:00;;;;;;;31.52;10.57;;;;;;;16.78;65.70;101530.31;4930762;29;20030;-78
2023/10/07 03:20:31;;;;;;;26.05;11.02;;;;;;;16.66;65.13;101507.00;4930452;29;20055;-79
2023/10/07 03:23:11;;;;;;;20.45;9.98;;;;;;;16.79;64.47;101537.44;4930473;29;20043;-78
2023/10/07 03:28:24;;;;;;;25.48;10.73;;;;;;;16.80;64.43;101550.03;4930391;29;20059;-78
2023/10/07 03:30:52;;;;;;;31.88;10.10;;;;;;;16.65;65.07;101527.88;4930385;29;20513;-80
2023/10/07 03:33:44;;;;;;;24.90;9.23;;;;;;;16.69;65.11;101544.75;4938144;28;20043;-78
2023/10/07 03:39:10;;;;;;;27.73;10.00;;;;;;;16.68;65.79;101545.75;4969031;28;20506;-79
2023/10/07 03:41:36;;;;;;;28.40;10.55;;;;;;;16.72;65.74;101537.19;5015153;28;20128;-78
2023/10/07 03:44:02;;;;;;;28.67;9.82;;;;;;;16.52;65.56;101512.81;5049559;28;20566;-78
2023/10/07 03:46:27;;;;;;;28.52;9.85;;;;;;;16.72;65.62;101549.91;5049583;28;20461;-78
2023/10/07 03:48:53;;;;;;;23.27;8.60;;;;;;;16.73;65.59;101535.31;5031117;28;20052;-78
2023/10/07 03:51:22;;;;;;;32.58;9.93;;;;;;;16.69;65.67;101544.75;5050186;28;20044;-78
2023/10/07 03:53:49;;;;;;;22.27;8.65;;;;;;;16.65;65.42;101538.75;5049940;28;20033;-77
2023/10/07 03:56:16;;;;;;;25.45;8.85;;;;;;;16.79;65.60;101548.31;5049536;28;20047;-78
2023/10/07 03:58:43;;;;;;;27.58;9.90;;;;;;;16.56;65.47;101512.44;5050131;28;20025;-78
2023/10/07 04:01:16;;;;;;;29.67;10.45;;;;;;;16.64;65.68;101530.72;5049308;28;20040;-78
2023/10/07 04:03:46;;;;;;;37.67;10.93;;;;;;;16.69;65.76;101550.19;5049950;28;20060;-78
2023/10/07 04:06:13;;;;;;;35.50;10.00;;;;;;;16.71;65.73;101542.75;5049879;28;20082;-78
2023/10/07 04:08:40;;;;;;;39.60;10.98;;;;;;;16.61;65.58;101520.16;5049502;28;20017;-78
2023/10/07 04:11:13;;;;;;;46.55;10.63;;;;;;;16.72;65.89;101544.47;5049991;28;20527;-79
2023/10/07 04:13:39;;;;;;;48.45;11.50;;;;;;;16.72;66.31;101549.91;4991603;28;20038;-78
2023/10/07 04:16:14;;;;;;;41.60;10.48;;;;;;;16.68;66.45;101554.75;4991623;28;20078;-77
2023/10/07 04:18:40;;;;;;;28.67;8.88;;;;;;;16.60;66.09;101557.34;4991526;28;20401;-79
2023/10/07 04:21:06;;;;;;;25.35;9.63;;;;;;;16.58;66.71;101555.72;4991564;28;20394;-78
2023/10/07 04:23:32;;;;;;;31.77;12.05;;;;;;;16.54;66.95;101557.91;4975136;28;20557;-79
2023/10/07 04:26:19;;;;;;;30.63;12.55;;;;;;;16.59;66.91;101568.34;4990827;28;20137;-77
2023/10/07 04:28:48;;;;;;;60.05;24.30;;;;;;;16.42;66.58;101553.53;4991141;28;20049;-79
2023/10/07 04:31:17;;;;;;;67.43;35.95;;;;;;;16.54;66.35;101562.44;4991587;28;20061;-78
2023/10/07 04:33:53;;;;;;;93.05;43.17;;;;;;;16.48;66.20;101573.88;4991017;28;20039;-78
2023/10/07 04:36:32;;;;;;;72.70;36.88;;;;;;;16.49;66.34;101554.69;4974649;28;20201;-80
2023/10/07 04:38:58;;;;;;;88.95;37.10;;;;;;;16.54;66.24;101562.44;4991230;28;20045;-78
2023/10/07 04:43:52;;;;;;;62.30;26.58;;;;;;;16.58;65.79;101562.03;5000473;28;20051;-79
2023/10/07 04:46:22;;;;;;;53.05;23.48;;;;;;;16.61;65.59;101566.31;5052885;28;20040;-79
2023/10/07 04:48:55;;;;;;;56.33;25.42;;;;;;;16.52;65.53;101556.28;5052061;28;20029;-77
2023/10/07 04:51:46;;;;;;;63.50;20.10;;;;;;;16.52;65.75;101556.28;5052477;28;20119;-79
2023/10/07 04:54:10;;;;;;;62.35;18.73;;;;;;;16.58;65.88;101569.31;5052101;28;20032;-79
2023/10/07 04:56:36;;;;;;;43.47;16.95;;;;;;;16.59;65.84;101566.47;5052369;28;20021;-80
2023/10/07 04:59:06;;;;;;;50.67;13.95;;;;;;;16.67;66.01;101563.03;5052256;28;20029;-79
2023/10/07 05:01:35;;;;;;;43.38;15.10;;;;;;;16.70;65.89;101565.47;5017991;28;20511;-81
2023/10/07 05:04:09;;;;;;;38.63;13.07;;;;;;;16.72;66.03;101567.06;5052408;28;20033;-79
2023/10/07 05:06:35;;;;;;;43.45;12.30;;;;;;;16.79;66.19;101560.06;5052818;28;20044;-79
2023/10/07 05:09:18;;;;;;;67.03;14.30;;;;;;;16.77;66.28;101559.34;5052589;28;20118;-78
2023/10/07 05:11:45;;;;;;;54.22;11.95;;;;;;;16.83;66.26;101555.19;5053704;28;20032;-78
2023/10/07 05:14:11;;;;;;;67.70;15.10;;;;;;;16.88;66.48;101561.91;5055002;28;20052;-79
2023/10/07 05:16:37;;;;;;;68.40;13.05;;;;;;;16.80;66.61;101539.19;5003347;28;20037;-78
2023/10/07 05:19:08;;;;;;;58.03;12.65;;;;;;;17.00;66.54;101569.94;5056028;28;20047;-79
2023/10/07 05:21:37;;;;;;;34.38;11.40;;;;;;;17.00;66.43;101572.66;5055960;28;20021;-79
2023/10/07 05:24:04;;;;;;;48.58;20.60;;;;;;;16.96;66.68;101563.94;5057092;28;20036;-80
2023/10/07 05:26:31;;;;;;;55.72;21.20;;;;;;;16.88;66.36;101566.47;5061292;28;20021;-79
2023/10/07 05:29:02;;;;;;;61.20;25.65;;;;;;;16.96;66.51;101569.38;5060861;28;20053;-78
2023/10/07 05:31:33;;;;;;;75.93;28.95;;;;;;;16.88;66.33;101542.03;5059741;28;20025;-79
2023/10/07 05:33:59;;;;;;;76.20;27.90;;;;;;;17.08;66.06;101567.34;5058076;28;20473;-79
2023/10/07 05:36:32;;;;;;;65.10;25.55;;;;;;;17.23;66.09;101577.66;5055019;28;20087;-79
2023/10/07 05:39:00;;;;;;;74.20;23.90;;;;;;;17.32;65.89;101565.91;5052605;28;20033;-78
2023/10/07 05:41:28;;;;;;;65.18;21.60;;;;;;;17.40;65.97;101567.88;5051639;28;20051;-78
2023/10/07 05:43:54;;;;;;;72.85;21.73;;;;;;;17.47;65.93;101579.03;5051260;28;20049;-77
2023/10/07 05:46:20;;;;;;;114.53;23.20;;;;;;;17.53;65.88;101565.72;5052060;28;20028;-79
2023/10/07 05:48:46;;;;;;;78.75;20.50;;;;;;;17.62;65.77;101559.41;5051644;28;20069;-78
2023/10/07 05:51:12;;;;;;;59.30;17.10;;;;;;;17.67;65.56;101548.09;5051461;28;20040;-79
2023/10/07 05:53:48;;;;;;;57.00;18.23;;;;;;;17.64;65.12;101538.38;5051070;28;20071;-79
2023/10/07 05:56:14;;;;;;;54.88;19.70;;;;;;;17.86;65.34;101558.91;5051498;28;20092;-78
2023/10/07 05:58:40;;;;;;;66.82;21.90;;;;;;;18.11;65.14;101565.53;5052380;28;20037;-79
2023/10/07 06:01:11;;;;;;;118.85;25.60;;;;;;;18.27;64.77;101568.47;5051684;28;20025;-78
2023/10/07 06:03:36;;;;;;;65.30;21.73;;;;;;;18.42;64.25;101566.94;5051098;28;20489;-79
2023/10/07 06:06:04;;;;;;;66.10;25.17;;;;;;;18.52;64.00;101567.78;5050988;28;20020;-81
2023/10/07 06:08:32;;;;;;;71.22;26.95;;;;;;;18.56;63.14;101539.19;5051028;28;20021;-79
2023/10/07 06:10:59;;;;;;;77.00;30.02;;;;;;;18.80;62.65;101565.88;5051209;28;20036;-79
2023/10/07 06:13:28;;;;;;;78.28;27.17;;;;;;;18.88;62.35;101557.75;5051323;28;20028;-79
2023/10/07 06:15:55;;;;;;;69.47;26.77;;;;;;;18.74;61.90;101522.88;5050362;28;20470;-77
2023/10/07 06:18:22;;;;;;;65.50;26.73;;;;;;;18.90;61.08;101528.47;5050879;28;20025;-78
2023/10/07 06:20:54;;;;;;;62.42;25.73;;;;;;;18.91;60.80;101516.56;5051020;28;20507;-78
2023/10/07 06:23:20;;;;;;;;;;;;;;;19.17;60.24;101552.94;5051384;28;20108;-77
2023/10/07 06:25:51;;;;;;;63.08;26.77;;;;;;;19.13;60.12;101542.47;5052801;28;19908;-77
2023/10/07 06:31:13;;;;;;;52.95;25.48;;;;;;;19.20;59.21;101549.03;5200848;22;20114;-78
2023/10/07 06:33:43;;;;;;;57.92;23.48;;;;;;;19.24;59.15;101544.94;5051113;28;20021;-75
2023/10/07 06:36:12;;;;;;;60.42;22.45;;;;;;;19.30;58.96;101542.44;5049489;28;20102;-76
2023/10/07 06:38:52;;;;;;;60.17;19.73;;;;;;;19.22;58.75;101515.13;5050849;28;20029;-76
2023/10/07 06:41:21;;;;;;;61.28;21.45;;;;;;;19.41;58.80;101544.09;5050766;28;20029;-76
2023/10/07 06:43:50;;;;;;;47.75;19.90;;;;;;;19.55;58.65;101546.25;5051232;28;20082;-76
2023/10/07 06:46:21;;;;;;;70.05;22.90;;;;;;;19.61;58.44;101531.94;5050712;28;20032;-76
2023/10/07 06:48:50;;;;;;;48.55;19.65;;;;;;;19.70;58.27;101539.16;5050545;28;20032;-78
2023/10/07 06:51:16;;;;;;;49.20;19.88;;;;;;;19.84;58.04;101540.44;5050206;28;20466;-78
2023/10/07 06:53:45;;;;;;;41.40;17.70;;;;;;;19.94;57.88;101543.91;5051278;28;20051;-76
2023/10/07 06:56:20;;;;;;;39.30;15.57;;;;;;;20.01;57.50;101542.22;5051493;28;20033;-79
2023/10/07 06:58:53;;;;;;;55.20;15.88;;;;;;;20.03;57.35;101530.13;5051250;28;20036;-80
2023/10/07 07:01:35;;;;;;;48.17;14.20;;;;;;;20.15;56.79;101538.88;5032825;28;20455;-77
2023/10/07 07:04:09;;;;;;;26.42;11.95;;;;;;;20.27;56.78;101545.81;5050735;28;20103;-79
2023/10/07 07:06:42;;;;;;;32.72;13.55;;;;;;;20.34;56.55;101543.25;5051362;28;20051;-85
2023/10/07 07:12:09;;;;;;;46.83;11.35;;;;;;;20.45;56.17;101512.91;4970683;28;20133;-84
2023/10/07 07:14:34;;;;;;;31.35;11.90;;;;;;;20.40;55.59;101504.31;4971426;28;20137;-90
2023/10/07 07:22:50;;;;;;;35.42;10.82;;;;;;;20.68;55.59;101516.69;4969362;28;20046;-76
2023/10/07 07:25:30;;;;;;;22.85;10.23;;;;;;;20.92;55.77;101548.66;4969384;28;20043;-77
2023/10/07 07:27:58;;;;;;;34.38;12.10;;;;;;;20.92;55.87;101537.72;4969112;28;20035;-76
2023/10/07 07:30:29;;;;;;;29.75;10.00;;;;;;;20.78;55.89;101491.91;4957940;28;20581;-80
2023/10/07 07:32:59;;;;;;;21.48;7.78;;;;;;;21.22;56.03;101542.59;4965205;28;20042;-80
2023/10/07 07:35:43;;;;;;;20.77;8.20;;;;;;;21.31;56.10;101538.81;4971549;28;20070;-80
2023/10/07 07:38:32;;;;;;;22.90;6.88;;;;;;;21.38;56.50;101545.28;4972083;28;20449;-79
2023/10/07 07:41:01;;;;;;;29.02;6.43;;;;;;;21.52;56.38;101547.34;4971801;28;20046;-79
2023/10/07 07:43:27;;;;;;;23.73;8.48;;;;;;;21.58;56.07;101541.16;4969851;28;20034;-79
2023/10/07 07:46:05;;;;;;;29.75;8.25;;;;;;;21.65;55.42;101536.69;4969820;28;20122;-80
2023/10/07 07:48:36;;;;;;;29.10;8.13;;;;;;;21.70;55.76;101522.47;5000865;28;20474;-80
2023/10/07 07:51:01;;;;;;;26.15;7.75;;;;;;;21.74;55.73;101506.56;5054647;28;20032;-81
2023/10/07 07:53:30;;;;;;;20.42;6.50;;;;;;;21.98;55.65;101531.16;5054539;28;20032;-84
2023/10/07 07:55:58;;;;;;;22.17;7.07;;;;;;;21.72;55.32;101479.34;5054792;28;20067;-86
2023/10/07 07:58:24;;;;;;;22.35;7.35;;;;;;;21.89;55.33;101496.63;5035810;28;20127;-83
2023/10/07 08:00:58;;;;;;;36.55;8.23;;;;;;;22.11;55.18;101509.50;5054847;28;20029;-84
2023/10/07 08:03:24;;;;;;;14.13;5.68;;;;;;;22.23;55.39;101514.41;5055992;28;20121;-82
2023/10/07 08:05:50;;;;;;;28.48;6.70;;;;;;;22.33;55.10;101519.69;5055400;28;20029;-82
2023/10/07 08:08:24;;;;;;;31.27;7.53;;;;;;;22.39;55.08;101518.09;5055239;28;20035;-84
2023/10/07 08:10:54;;;;;;;18.35;6.40;;;;;;;22.37;54.88;101515.56;5056225;28;20142;-84
2023/10/07 08:13:27;;;;;;;17.25;7.65;;;;;;;22.31;54.81;101483.38;5054594;28;20052;-84
2023/10/07 08:15:56;;;;;;;19.48;6.13;;;;;;;22.51;54.67;101508.44;5054187;28;20033;-80
2023/10/07 08:18:28;;;;;;;20.05;6.85;;;;;;;22.65;54.25;101516.78;5053800;28;20028;-80
2023/10/07 08:21:13;;;;;;;19.75;6.97;;;;;;;22.45;53.71;101471.63;5053834;28;20079;-83
2023/10/07 08:23:40;;;;;;;20.30;6.90;;;;;;;22.82;53.47;101506.53;5055532;28;20095;-80
2023/10/07 08:26:10;;;;;;;17.63;6.68;;;;;;;22.84;53.07;101512.72;5055801;28;20062;-80
2023/10/07 08:28:44;;;;;;;20.08;6.80;;;;;;;22.88;52.78;101504.94;5036780;28;20399;-82
2023/10/07 08:31:36;;;;;;;18.83;6.38;;;;;;;22.88;52.07;101507.69;5055015;28;20140;-82
2023/10/07 08:36:30;;;;;;;20.33;6.38;;;;;;;22.98;51.90;101511.91;5062344;28;20040;-84
2023/10/07 08:39:04;;;;;;;21.50;7.72;;;;;;;22.92;52.00;101506.31;5068948;28;20091;-84
2023/10/07 08:41:31;;;;;;;24.58;7.00;;;;;;;22.93;52.01;101491.56;5069291;28;20029;-83
2023/10/07 08:44:16;;;;;;;20.25;8.07;;;;;;;23.23;52.00;101504.31;5067020;28;20025;-82
2023/10/07 08:46:48;;;;;;;30.75;8.82;;;;;;;23.30;51.58;101491.56;5065199;28;20037;-81
2023/10/07 08:49:17;;;;;;;17.27;7.60;;;;;;;23.44;51.18;101484.41;5060073;28;20029;-83
2023/10/07 08:51:43;;;;;;;23.27;8.75;;;;;;;23.54;51.01;101498.72;5054219;28;20040;-83
2023/10/07 08:54:25;;;;;;;25.70;8.95;;;;;;;23.44;50.62;101457.81;5054861;28;20029;-84
2023/10/07 08:56:54;;;;;;;18.20;7.28;;;;;;;23.67;49.98;101482.41;5054587;28;20029;-83
2023/10/07 08:59:33;;;;;;;24.52;8.50;;;;;;;23.72;50.12;101479.97;5052301;28;20511;-82
2023/10/07 09:02:00;;;;;;;17.70;6.75;;;;;;;23.73;49.69;101463.28;5053626;28;20033;-81
2023/10/07 09:04:45;;;;;;;20.33;8.63;;;;;;;23.72;49.17;101458.84;5052807;28;20462;-81
2023/10/07 09:07:11;;;;;;;39.45;8.27;;;;;;;23.82;49.17;101453.91;5053510;28;20416;-82
2023/10/07 09:09:38;;;;;;;24.17;7.45;;;;;;;23.76;49.10;101448.31;5034597;28;20469;-80
2023/10/07 09:12:18;;;;;;;18.75;6.20;;;;;;;23.93;48.71;101465.47;5053018;28;20036;-80
2023/10/07 09:14:57;;;;;;;18.10;6.22;;;;;;;24.03;48.78;101466.88;5052692;28;20032;-79
2023/10/07 09:17:26;;;;;;;26.23;6.85;;;;;;;24.07;48.49;101462.69;5052280;28;20831;-80
2023/10/07 09:20:00;;;;;;;23.45;7.75;;;;;;;24.18;47.72;101467.72;5053507;28;20029;-78
2023/10/07 09:22:33;;;;;;;34.25;8.00;;;;;;;24.17;47.71;101451.41;5051941;28;20067;-79
2023/10/07 09:25:16;;;;;;;16.92;6.30;;;;;;;24.20;46.99;101434.53;5052944;28;20029;-82
2023/10/07 09:27:56;;;;;;;11.65;5.55;;;;;;;24.46;46.47;101448.59;5053912;28;20464;-81
2023/10/07 09:33:14;;;;;;;21.63;6.80;;;;;;;24.59;45.99;101429.44;5052570;28;20029;-79
2023/10/07 09:38:41;;;;;;;20.98;6.90;;;;;;;24.66;47.85;101435.03;5053661;28;20574;-82
2023/10/07 09:43:37;;;;;;;19.65;6.68;;;;;;;24.63;47.51;101403.25;5052554;28;20029;-81
2023/10/07 09:46:03;;;;;;;19.35;6.32;;;;;;;24.55;47.39;101402.56;5052550;28;20094;-80
2023/10/07 09:48:33;;;;;;;18.63;6.20;;;;;;;24.61;47.08;101416.38;5051469;28;20021;-80
2023/10/07 09:51:00;;;;;;;21.83;5.97;;;;;;;24.56;48.09;101412.47;5051506;28;20093;-80
2023/10/07 09:53:35;;;;;;;19.40;5.95;;;;;;;24.51;48.75;101418.59;5051718;28;20067;-79
2023/10/07 09:56:43;;;;;;;17.77;5.13;;;;;;;24.44;49.51;101408.56;5052157;28;20037;-79
2023/10/07 09:59:25;;;;;;;24.13;5.55;;;;;;;24.11;50.91;101400.81;5009633;28;20120;-82
2023/10/07 10:02:07;;;;;;;25.90;5.07;;;;;;;24.00;51.32;101397.69;5009721;28;20045;-81
2023/10/07 10:04:52;;;;;;;20.95;5.60;;;;;;;23.74;51.71;101378.97;5010539;28;20127;-81
2023/10/07 10:07:22;;;;;;;23.40;5.57;;;;;;;23.92;52.33;101381.31;5011159;28;20476;-83
2023/10/07 10:21:00;;;;;;;21.90;4.47;;;;;;;23.33;53.60;101340.19;4912140;29;20431;-80
2023/10/07 10:23:33;;;;;;;22.23;5.57;;;;;;;23.47;54.16;101353.06;4911905;29;20051;-82
2023/10/07 10:26:13;;;;;;;17.63;5.25;;;;;;;23.51;53.68;101334.31;4912245;29;20111;-79
2023/10/07 10:28:41;;;;;;;30.23;6.28;;;;;;;23.69;53.38;101338.38;4911438;29;20032;-79
2023/10/07 10:31:32;;;;;;;26.42;5.28;;;;;;;23.74;53.40;101330.38;4927972;29;20662;-81
2023/10/07 10:33:59;;;;;;;18.83;5.15;;;;;;;23.75;53.72;101321.13;4927704;29;20044;-82
2023/10/07 10:36:24;;;;;;;23.83;5.53;;;;;;;23.66;54.25;101332.41;4911869;29;20119;-79
2023/10/07 10:38:50;;;;;;;12.38;4.57;;;;;;;23.76;54.22;101322.78;4911492;29;20036;-79
2023/10/07 10:41:28;;;;;;;28.85;6.70;;;;;;;23.75;54.20;101314.75;4912438;29;20129;-82
2023/10/07 10:44:10;;;;;;;19.75;6.10;;;;;;;23.38;54.16;101258.09;4911442;29;20032;-78
2023/10/07 10:47:06;;;;;;;16.30;5.85;;;;;;;23.77;54.21;101321.75;4925927;28;20042;-80
2023/10/07 10:49:32;;;;;;;22.60;5.55;;;;;;;23.56;54.02;101277.78;4950330;28;20152;-81
2023/10/07 10:52:00;;;;;;;24.55;5.28;;;;;;;23.79;53.20;101299.59;4949612;28;20103;-81
2023/10/07 10:54:25;;;;;;;25.88;5.53;;;;;;;23.73;52.83;101276.47;4960625;28;20128;-80
2023/10/07 10:56:57;;;;;;;43.35;7.20;;;;;;;23.70;53.12;101274.13;5008296;28;20107;-81
2023/10/07 10:59:38;;;;;;;22.92;6.07;;;;;;;24.09;52.31;101289.34;5009255;28;20553;-81
2023/10/07 11:02:05;;;;;;;15.57;5.03;;;;;;;24.02;51.83;101271.91;5008378;28;20045;-81
2023/10/07 11:04:31;;;;;;;16.95;5.35;;;;;;;23.78;53.08;101282.25;5008250;28;20545;-81
2023/10/07 11:06:59;;;;;;;14.63;4.47;;;;;;;23.90;53.65;101278.97;5008205;28;20038;-79
2023/10/07 11:09:34;;;;;;;15.27;5.18;;;;;;;23.91;52.88;101287.06;5007759;28;20045;-83
2023/10/07 11:12:08;;;;;;;18.20;4.97;;;;;;;23.93;52.03;101278.59;5007823;28;20029;-80
2023/10/07 11:14:35;;;;;;;29.10;6.95;;;;;;;23.84;51.99;101269.63;5007506;28;20040;-79
2023/10/07 11:17:03;;;;;;;28.83;5.65;;;;;;;23.58;52.68;101215.25;5008589;28;20026;-81
2023/10/07 11:19:30;;;;;;;21.88;5.88;;;;;;;23.93;51.65;101248.38;5007479;28;20037;-81
2023/10/07 11:21:58;;;;;;;12.98;5.03;;;;;;;23.89;51.58;101230.56;5007833;28;20037;-81
2023/10/07 11:24:25;;;;;;;21.45;4.72;;;;;;;23.96;51.32;101235.09;5013136;28;20045;-78
2023/10/07 11:26:52;;;;;;;26.75;6.32;;;;;;;24.00;51.22;101224.56;5011973;28;20124;-80
2023/10/07 11:29:18;;;;;;;20.95;5.15;;;;;;;24.03;51.10;101229.66;5049556;28;20036;-83
2023/10/07 11:31:45;;;;;;;21.77;5.35;;;;;;;23.64;51.49;101206.22;5050184;28;20029;-81
2023/10/07 11:34:12;;;;;;;14.77;5.43;;;;;;;23.70;51.60;101205.44;5050465;28;20040;-80
2023/10/07 11:36:46;;;;;;;24.88;6.32;;;;;;;23.76;51.78;101228.53;5050368;28;20025;-83
2023/10/07 11:39:13;;;;;;;23.95;5.65;;;;;;;23.42;51.88;101149.63;5050067;28;20032;-82
2023/10/07 11:41:42;;;;;;;16.00;5.30;;;;;;;23.81;51.26;101195.84;5051136;28;20032;-82
2023/10/07 11:44:12;;;;;;;15.85;5.95;;;;;;;23.80;50.64;101199.63;5051391;28;20090;-85
2023/10/07 11:46:41;;;;;;;24.92;4.80;;;;;;;23.95;50.47;101207.78;5051506;28;20040;-84
2023/10/07 11:49:08;;;;;;;26.67;5.43;;;;;;;24.08;50.53;101210.66;5051748;28;20044;-86
2023/10/07 11:51:33;;;;;;;15.57;5.15;;;;;;;24.08;50.70;101195.03;5050934;28;20115;-84
2023/10/07 11:54:00;;;;;;;11.57;4.45;;;;;;;24.24;49.94;101182.94;5051099;28;20123;-84
2023/10/07 11:56:27;;;;;;;20.20;6.00;;;;;;;24.23;48.82;101192.22;5051110;28;20071;-86
2023/10/07 11:58:53;;;;;;;19.33;5.80;;;;;;;24.12;48.76;101168.03;5033695;28;20067;-85
2023/10/07 12:01:20;;;;;;;18.05;5.53;;;;;;;24.22;48.58;101202.34;5051286;28;20025;-81
2023/10/07 12:03:46;;;;;;;13.20;4.43;;;;;;;24.12;48.16;101185.38;5051368;28;20345;-81
2023/10/07 12:06:12;;;;;;;10.98;4.85;;;;;;;24.17;48.55;101176.50;5050435;28;20060;-80
2023/10/07 12:08:38;;;;;;;20.88;6.03;;;;;;;24.11;49.80;101172.66;5051231;28;20113;-83
2023/10/07 12:11:05;;;;;;;16.05;5.25;;;;;;;23.91;49.49;101148.81;5051096;28;20029;-83
2023/10/07 12:13:31;;;;;;;19.27;5.32;;;;;;;24.02;48.92;101162.00;5051794;28;20033;-82
2023/10/07 12:15:56;;;;;;;25.90;7.03;;;;;;;24.13;49.60;101156.81;5050821;28;20033;-83
2023/10/07 12:18:22;;;;;;;29.55;6.78;;;;;;;24.11;50.42;101160.81;5051449;28;20039;-82
2023/10/07 12:20:47;;;;;;;18.65;5.10;;;;;;;23.99;51.19;101140.41;5051632;28;20043;-83
2023/10/07 12:23:13;;;;;;;14.50;6.20;;;;;;;24.10;51.33;101167.31;5031875;28;20107;-83
2023/10/07 12:25:38;;;;;;;17.25;5.97;;;;;;;23.96;50.89;101141.66;5051590;28;20017;-82
2023/10/07 12:28:08;;;;;;;16.35;4.45;;;;;;;24.08;51.77;101155.69;5049788;28;20480;-77